GRZ521 Details

Departure: Adak Airport (PADK)
Arrival: Ted Stevens Anchorage International Airport (PANC)
Route: ADK028021 SIYNY G8 AUB STREW V456 TUCKS AMOTT4


Current Weather Information
PADK 190656Z AUTO 05018G21KT 10SM FEW037 BKN048 02/M04 A2968 RMK AO2 SLP049 T00171044 FZRANO
PANC 190653Z 15017G23KT 10SM FEW050 SCT070 BKN090 05/00 A2949 RMK AO2 PK WND 15031/0634 SLP987 T00500000